createdAt,value
2022-10-02T00:02:55.100Z,14.77
2022-10-02T00:07:04.221Z,11.52
2022-10-02T00:11:14.135Z,14.35
2022-10-02T00:15:21.154Z,10.85
2022-10-02T00:19:24.014Z,16.55
2022-10-02T00:23:33.340Z,11.30
2022-10-02T00:27:49.970Z,14.48
2022-10-02T00:32:04.022Z,15.25
2022-10-02T00:36:16.885Z,15.43
2022-10-02T00:40:38.075Z,13.63
2022-10-02T00:44:55.599Z,12.20
2022-10-02T00:49:16.148Z,13.20
2022-10-02T00:53:29.505Z,13.90
2022-10-02T00:57:49.118Z,14.65
2022-10-02T01:01:58.665Z,10.73
2022-10-02T01:06:01.531Z,13.95
2022-10-02T01:10:04.974Z,14.13
2022-10-02T01:14:08.636Z,11.77
2022-10-02T01:18:15.786Z,12.70
2022-10-02T01:22:25.211Z,13.55
2022-10-02T01:26:29.550Z,11.30
2022-10-02T01:30:34.819Z,19.83
2022-10-02T01:34:38.370Z,19.80
2022-10-02T01:38:41.760Z,15.68
2022-10-02T01:42:45.991Z,15.02
2022-10-02T01:46:57.121Z,16.90
2022-10-02T01:51:30.211Z,23.30
2022-10-02T01:55:41.048Z,24.80
2022-10-02T01:59:57.547Z,26.42
2022-10-02T02:04:08.424Z,21.45
2022-10-02T02:08:17.757Z,23.48
2022-10-02T02:12:24.406Z,17.83
2022-10-02T02:16:33.271Z,20.35
2022-10-02T02:20:42.837Z,16.23
2022-10-02T02:24:52.227Z,19.98
2022-10-02T02:29:01.090Z,19.13
2022-10-02T02:33:08.396Z,17.92
2022-10-02T02:37:16.477Z,20.77
2022-10-02T02:41:22.774Z,23.23
2022-10-02T02:45:28.948Z,23.45
2022-10-02T02:49:38.525Z,22.83
2022-10-02T02:53:45.458Z,21.98
2022-10-02T02:57:54.450Z,16.60
2022-10-02T03:01:57.334Z,27.42
2022-10-02T03:06:23.099Z,21.55
2022-10-02T03:10:36.545Z,20.42
2022-10-02T03:15:02.330Z,24.00
2022-10-02T03:19:17.734Z,24.60
2022-10-02T03:23:28.888Z,29.23
2022-10-02T03:27:38.722Z,23.63
2022-10-02T03:31:42.188Z,30.45
2022-10-02T03:35:46.157Z,26.02
2022-10-02T03:39:51.609Z,20.25
2022-10-02T03:43:54.454Z,24.88
2022-10-02T03:47:57.497Z,26.55
2022-10-02T03:52:00.279Z,24.42
2022-10-02T03:56:08.754Z,21.40
2022-10-02T04:00:17.560Z,18.38
2022-10-02T04:04:27.747Z,28.05
2022-10-02T04:08:36.070Z,26.55
2022-10-02T04:12:46.001Z,23.33
2022-10-02T04:16:53.311Z,22.50
2022-10-02T04:21:00.877Z,24.38
2022-10-02T04:25:10.463Z,24.23
2022-10-02T04:29:19.881Z,27.40
2022-10-02T04:33:25.648Z,26.77
2022-10-02T04:37:46.783Z,24.55
2022-10-02T04:42:20.776Z,22.88
2022-10-02T04:46:42.918Z,25.52
2022-10-02T04:50:55.326Z,27.02
2022-10-02T04:55:25.637Z,28.48
2022-10-02T04:59:49.754Z,27.80
2022-10-02T05:04:06.091Z,25.30
2022-10-02T05:08:26.723Z,24.55
2022-10-02T05:12:51.797Z,28.52
2022-10-02T05:17:11.959Z,29.08
2022-10-02T05:21:44.845Z,33.67
2022-10-02T05:26:15.508Z,30.77
2022-10-02T05:30:19.544Z,34.45
2022-10-02T05:34:48.126Z,29.67
2022-10-02T05:39:08.216Z,28.35
2022-10-02T05:43:14.062Z,40.30
2022-10-02T05:47:22.390Z,34.03
2022-10-02T05:51:36.842Z,34.17
2022-10-02T05:55:47.771Z,29.42
2022-10-02T06:00:01.180Z,27.45
2022-10-02T06:04:12.103Z,30.00
2022-10-02T06:08:21.723Z,29.05
2022-10-02T06:12:31.815Z,32.78
2022-10-02T06:16:41.105Z,33.80
2022-10-02T06:20:49.909Z,32.00
2022-10-02T06:24:58.122Z,26.83
2022-10-02T06:29:06.434Z,33.53
2022-10-02T06:33:14.627Z,31.63
2022-10-02T06:37:44.179Z,32.42
2022-10-02T06:41:54.147Z,36.85
2022-10-02T06:46:08.207Z,28.85
2022-10-02T06:50:27.493Z,31.65
2022-10-02T06:54:48.424Z,30.55
2022-10-02T06:59:04.619Z,34.53
2022-10-02T07:03:30.855Z,33.08
2022-10-02T07:07:49.285Z,35.45
2022-10-02T07:11:59.930Z,28.13
2022-10-02T07:16:32.652Z,29.52
2022-10-02T07:20:48.291Z,28.98
2022-10-02T07:25:09.562Z,25.73
2022-10-02T07:29:32.189Z,30.88
2022-10-02T07:33:53.975Z,30.90
2022-10-02T07:38:19.955Z,28.45
2022-10-02T07:42:46.605Z,23.48
2022-10-02T07:46:59.108Z,22.27
2022-10-02T07:51:31.578Z,26.58
2022-10-02T07:55:41.405Z,26.13
2022-10-02T07:59:45.974Z,24.33
2022-10-02T08:03:53.014Z,21.17
2022-10-02T08:07:59.154Z,22.52
2022-10-02T08:12:09.829Z,21.50
2022-10-02T08:16:15.459Z,19.67
2022-10-02T08:20:29.406Z,20.48
2022-10-02T08:24:39.747Z,18.02
2022-10-02T08:28:50.743Z,19.70
2022-10-02T08:32:54.957Z,16.58
2022-10-02T08:37:08.386Z,20.45
2022-10-02T08:41:56.870Z,18.95
2022-10-02T08:46:35.613Z,19.88
2022-10-02T08:51:20.621Z,19.38
2022-10-02T08:55:53.995Z,14.98
2022-10-02T09:00:15.133Z,15.23
2022-10-02T09:05:00.928Z,15.50
2022-10-02T09:09:37.697Z,16.30
2022-10-02T09:14:16.554Z,17.85
2022-10-02T09:18:36.977Z,15.15
2022-10-02T09:23:13.485Z,18.98
2022-10-02T09:27:48.216Z,16.50
2022-10-02T09:32:28.538Z,19.27
2022-10-02T09:37:10.494Z,15.70
2022-10-02T09:41:41.650Z,19.35
2022-10-02T09:46:23.256Z,21.90
2022-10-02T09:50:49.903Z,17.08
2022-10-02T09:55:36.535Z,17.23
2022-10-02T10:00:20.405Z,20.48
2022-10-02T10:05:06.687Z,18.55
2022-10-02T10:09:35.225Z,13.73
2022-10-02T10:14:08.643Z,15.18
2022-10-02T10:18:42.314Z,16.40
2022-10-02T10:23:05.695Z,12.18
2022-10-02T10:27:38.717Z,16.00
2022-10-02T10:32:41.070Z,18.63
2022-10-02T10:37:22.572Z,15.63
2022-10-02T10:41:52.582Z,13.60
2022-10-02T10:46:42.514Z,10.10
2022-10-02T10:51:17.836Z,9.63
2022-10-02T10:55:36.149Z,11.30
2022-10-02T11:00:10.209Z,13.27
2022-10-02T11:04:52.831Z,12.43
2022-10-02T11:09:32.603Z,9.43
2022-10-02T11:13:51.254Z,13.70
2022-10-02T11:18:12.802Z,13.10
2022-10-02T11:22:43.666Z,7.88
2022-10-02T11:27:06.871Z,12.63
2022-10-02T11:31:39.729Z,11.38
2022-10-02T11:35:54.842Z,10.85
2022-10-02T11:40:21.948Z,9.40
2022-10-02T11:44:48.433Z,11.10
2022-10-02T11:49:20.137Z,12.00
2022-10-02T11:53:49.663Z,9.38
2022-10-02T11:58:04.916Z,8.90
2022-10-02T12:02:16.249Z,9.02
2022-10-02T12:06:46.887Z,8.77
2022-10-02T12:10:55.521Z,6.60
2022-10-02T12:15:06.345Z,9.02
2022-10-02T12:19:21.202Z,8.43
2022-10-02T12:23:51.973Z,7.53
2022-10-02T12:28:04.639Z,8.07
2022-10-02T12:32:20.416Z,6.40
2022-10-02T12:36:36.315Z,6.50
2022-10-02T12:40:52.597Z,9.38
2022-10-02T12:45:16.409Z,7.85
2022-10-02T12:49:35.192Z,11.25
2022-10-02T12:54:11.596Z,9.30
2022-10-02T12:58:24.140Z,7.30
2022-10-02T13:03:01.374Z,7.80
2022-10-02T13:07:36.137Z,5.20
2022-10-02T13:11:55.687Z,9.00
2022-10-02T13:16:09.371Z,5.40
2022-10-02T13:20:23.124Z,6.47
2022-10-02T13:24:43.969Z,6.43
2022-10-02T13:29:36.966Z,6.45
2022-10-02T13:33:57.514Z,5.20
2022-10-02T13:38:14.942Z,6.47
2022-10-02T13:42:44.420Z,8.38
2022-10-02T13:47:08.558Z,7.35
2022-10-02T13:51:19.967Z,6.45
2022-10-02T13:55:25.877Z,6.85
2022-10-02T13:59:44.557Z,10.57
2022-10-02T14:04:10.719Z,7.22
2022-10-02T14:08:30.962Z,5.70
2022-10-02T14:12:45.647Z,6.57
2022-10-02T14:17:04.044Z,8.95
2022-10-02T14:21:17.812Z,7.00
2022-10-02T14:25:35.611Z,6.55
2022-10-02T14:29:49.621Z,6.63
2022-10-02T14:34:17.554Z,4.88
2022-10-02T14:38:43.075Z,8.10
2022-10-02T14:43:02.068Z,5.95
2022-10-02T14:47:16.496Z,7.22
2022-10-02T14:51:37.122Z,6.10
2022-10-02T14:56:06.774Z,5.38
2022-10-02T15:00:22.132Z,8.68
2022-10-02T15:04:36.539Z,6.20
2022-10-02T15:08:43.946Z,5.65
2022-10-02T15:12:51.960Z,5.47
2022-10-02T15:17:18.469Z,5.53
2022-10-02T15:21:28.831Z,4.97
2022-10-02T15:26:06.111Z,4.80
2022-10-02T15:30:18.506Z,5.70
2022-10-02T15:34:30.052Z,6.10
2022-10-02T15:38:46.914Z,4.38
2022-10-02T15:42:58.108Z,6.07
2022-10-02T15:47:15.350Z,7.32
2022-10-02T15:51:30.765Z,5.28
2022-10-02T15:55:41.049Z,5.68
2022-10-02T16:00:19.843Z,4.82
2022-10-02T16:04:29.314Z,5.55
2022-10-02T16:08:56.662Z,5.55
2022-10-02T16:13:24.509Z,5.50
2022-10-02T16:17:54.422Z,9.32
2022-10-02T16:22:17.106Z,4.72
2022-10-02T16:26:35.782Z,8.65
2022-10-02T16:30:59.843Z,6.53
2022-10-02T16:35:22.233Z,8.32
2022-10-02T16:39:40.977Z,8.88
2022-10-02T16:44:01.548Z,7.93
2022-10-02T16:48:10.449Z,5.68
2022-10-02T16:52:20.102Z,8.10
2022-10-02T16:56:31.726Z,6.57
2022-10-02T17:00:42.751Z,13.55
2022-10-02T17:04:56.051Z,7.93
2022-10-02T17:09:05.725Z,8.77
2022-10-02T17:13:26.202Z,11.00
2022-10-02T17:17:47.168Z,7.07
2022-10-02T17:21:54.523Z,5.78
2022-10-02T17:26:04.839Z,6.88
2022-10-02T17:30:20.990Z,7.80
2022-10-02T17:34:27.980Z,7.32
2022-10-02T17:38:53.158Z,8.40
2022-10-02T17:43:02.737Z,6.97
2022-10-02T17:47:22.428Z,5.07
2022-10-02T17:51:57.977Z,7.95
2022-10-02T17:56:37.277Z,6.43
2022-10-02T18:00:52.806Z,7.05
2022-10-02T18:05:14.902Z,6.20
2022-10-02T18:09:33.308Z,7.93
2022-10-02T18:13:56.057Z,10.48
2022-10-02T18:18:18.842Z,9.50
2022-10-02T18:22:33.998Z,10.50
2022-10-02T18:26:53.384Z,7.22
2022-10-02T18:31:09.282Z,5.97
2022-10-02T18:35:38.594Z,9.95
2022-10-02T18:39:44.797Z,8.90
2022-10-02T18:44:03.525Z,6.30
2022-10-02T18:48:26.144Z,10.75
2022-10-02T18:52:42.678Z,7.03
2022-10-02T18:57:05.354Z,7.03
2022-10-02T19:01:18.757Z,8.07
2022-10-02T19:05:26.292Z,10.60
2022-10-02T19:09:30.836Z,13.25
2022-10-02T19:13:41.647Z,13.27
2022-10-02T19:17:58.818Z,5.95
2022-10-02T19:22:09.561Z,14.55
2022-10-02T19:26:19.544Z,6.10
2022-10-02T19:30:26.148Z,7.82
2022-10-02T19:34:32.591Z,8.40
2022-10-02T19:38:38.321Z,8.70
2022-10-02T19:42:47.402Z,9.27
2022-10-02T19:46:53.260Z,7.68
2022-10-02T19:51:00.007Z,10.57
2022-10-02T19:55:07.112Z,10.57
2022-10-02T19:59:17.938Z,8.55
2022-10-02T20:03:22.760Z,10.68
2022-10-02T20:07:29.655Z,9.05
2022-10-02T20:11:36.763Z,9.73
2022-10-02T20:16:02.809Z,9.45
2022-10-02T20:20:11.657Z,7.30
2022-10-02T20:24:23.730Z,12.20
2022-10-02T20:28:32.105Z,12.40
2022-10-02T20:32:39.079Z,8.98
2022-10-02T20:36:52.785Z,8.68
2022-10-02T20:40:59.607Z,8.60
2022-10-02T20:45:02.654Z,10.13
2022-10-02T20:49:35.294Z,10.90
2022-10-02T20:54:12.362Z,8.23
2022-10-02T20:58:45.988Z,8.63
2022-10-02T21:03:23.115Z,9.60
2022-10-02T21:07:55.211Z,8.63
2022-10-02T21:12:19.702Z,5.82
2022-10-02T21:16:51.132Z,7.80
2022-10-02T21:21:23.280Z,9.55
2022-10-02T21:25:55.468Z,12.77
2022-10-02T21:30:11.318Z,7.32
2022-10-02T21:34:31.027Z,16.25
2022-10-02T21:38:56.112Z,12.23
2022-10-02T21:43:37.814Z,14.50
2022-10-02T21:47:55.774Z,9.77
2022-10-02T21:52:38.407Z,10.63
2022-10-02T21:57:30.484Z,9.70
2022-10-02T22:02:08.134Z,9.23
2022-10-02T22:06:26.180Z,8.70
2022-10-02T22:10:37.874Z,10.10
2022-10-02T22:14:45.419Z,9.60
2022-10-02T22:18:53.646Z,11.38
2022-10-02T22:23:10.627Z,8.25
2022-10-02T22:27:30.039Z,9.53
2022-10-02T22:32:19.083Z,10.85
2022-10-02T22:36:42.081Z,8.18
2022-10-02T22:40:52.284Z,10.73
2022-10-02T22:45:01.821Z,12.73
2022-10-02T22:49:17.307Z,16.63
2022-10-02T22:53:28.914Z,12.88
2022-10-02T22:57:39.766Z,8.70
2022-10-02T23:01:49.672Z,10.82
2022-10-02T23:05:57.936Z,10.25
2022-10-02T23:10:04.995Z,12.07
2022-10-02T23:14:17.302Z,12.73
2022-10-02T23:18:31.791Z,10.88
2022-10-02T23:22:39.811Z,7.93
2022-10-02T23:26:48.371Z,11.70
2022-10-02T23:31:03.205Z,12.98
2022-10-02T23:35:14.538Z,12.68
2022-10-02T23:39:23.556Z,13.50
2022-10-02T23:43:31.406Z,10.20
2022-10-02T23:47:48.404Z,9.55
2022-10-02T23:52:02.583Z,10.82
2022-10-02T23:56:22.934Z,14.15
